sensor_id;sensor_type;location;lat;lon;timestamp;P1;P2;P0
84927;PMS7003;75189;50.640;19.242;2023-12-29T00:02:03;5;2;1
84927;PMS7003;75189;50.640;19.242;2023-12-29T00:08:10;13;11;7
84927;PMS7003;75189;50.640;19.242;2023-12-29T00:14:17;23;14;9
84927;PMS7003;75189;50.640;19.242;2023-12-29T00:20:45;11;8;4
84927;PMS7003;75189;50.640;19.242;2023-12-29T00:26:51;13;9;6
84927;PMS7003;75189;50.640;19.242;2023-12-29T00:32:59;11;10;7
84927;PMS7003;75189;50.640;19.242;2023-12-29T00:39:05;14;10;6
84927;PMS7003;75189;50.640;19.242;2023-12-29T00:45:12;21;10;6
84927;PMS7003;75189;50.640;19.242;2023-12-29T00:51:19;16;12;8
84927;PMS7003;75189;50.640;19.242;2023-12-29T00:57:27;11;8;5
84927;PMS7003;75189;50.640;19.242;2023-12-29T01:03:34;9;8;5
84927;PMS7003;75189;50.640;19.242;2023-12-29T01:10:02;12;8;5
84927;PMS7003;75189;50.640;19.242;2023-12-29T01:16:09;7;5;3
84927;PMS7003;75189;50.640;19.242;2023-12-29T01:22:16;7;5;2
84927;PMS7003;75189;50.640;19.242;2023-12-29T01:28:23;12;8;4
84927;PMS7003;75189;50.640;19.242;2023-12-29T01:34:31;15;9;5
84927;PMS7003;75189;50.640;19.242;2023-12-29T01:40:45;15;13;9
84927;PMS7003;75189;50.640;19.242;2023-12-29T01:46:56;8;7;4
84927;PMS7003;75189;50.640;19.242;2023-12-29T01:53:06;7;6;3
84927;PMS7003;75189;50.640;19.242;2023-12-29T01:59:19;11;9;6
84927;PMS7003;75189;50.640;19.242;2023-12-29T02:05:26;14;8;4
84927;PMS7003;75189;50.640;19.242;2023-12-29T02:11:38;10;6;5
84927;PMS7003;75189;50.640;19.242;2023-12-29T02:17:45;11;7;4
84927;PMS7003;75189;50.640;19.242;2023-12-29T02:23:59;6;4;2
84927;PMS7003;75189;50.640;19.242;2023-12-29T02:30:09;7;7;4
84927;PMS7003;75189;50.640;19.242;2023-12-29T02:36:22;8;6;4
84927;PMS7003;75189;50.640;19.242;2023-12-29T02:42:30;6;5;3
84927;PMS7003;75189;50.640;19.242;2023-12-29T02:48:38;12;7;5
84927;PMS7003;75189;50.640;19.242;2023-12-29T02:54:45;16;13;8
84927;PMS7003;75189;50.640;19.242;2023-12-29T03:00:53;14;9;6
84927;PMS7003;75189;50.640;19.242;2023-12-29T03:06:59;7;5;4
84927;PMS7003;75189;50.640;19.242;2023-12-29T03:13:07;8;6;4
84927;PMS7003;75189;50.640;19.242;2023-12-29T03:19:13;9;6;5
84927;PMS7003;75189;50.640;19.242;2023-12-29T03:25:21;5;4;2
84927;PMS7003;75189;50.640;19.242;2023-12-29T03:31:28;7;6;2
84927;PMS7003;75189;50.640;19.242;2023-12-29T03:37:53;11;7;4
84927;PMS7003;75189;50.640;19.242;2023-12-29T03:43:59;9;6;3
84927;PMS7003;75189;50.640;19.242;2023-12-29T03:50:07;11;7;5
84927;PMS7003;75189;50.640;19.242;2023-12-29T03:56:15;6;5;4
84927;PMS7003;75189;50.640;19.242;2023-12-29T04:02:22;13;6;3
84927;PMS7003;75189;50.640;19.242;2023-12-29T04:08:29;8;3;0
84927;PMS7003;75189;50.640;19.242;2023-12-29T04:14:36;14;9;5
84927;PMS7003;75189;50.640;19.242;2023-12-29T04:20:43;9;8;5
84927;PMS7003;75189;50.640;19.242;2023-12-29T04:27:10;4;3;2
84927;PMS7003;75189;50.640;19.242;2023-12-29T04:33:16;9;6;3
84927;PMS7003;75189;50.640;19.242;2023-12-29T04:39:23;14;10;7
84927;PMS7003;75189;50.640;19.242;2023-12-29T04:45:30;10;6;5
84927;PMS7003;75189;50.640;19.242;2023-12-29T04:51:37;6;5;4
84927;PMS7003;75189;50.640;19.242;2023-12-29T04:57:45;9;5;3
84927;PMS7003;75189;50.640;19.242;2023-12-29T05:03:52;12;10;5
84927;PMS7003;75189;50.640;19.242;2023-12-29T05:09:59;6;5;3
84927;PMS7003;75189;50.640;19.242;2023-12-29T05:16:27;9;8;5
84927;PMS7003;75189;50.640;19.242;2023-12-29T05:22:34;7;6;4
84927;PMS7003;75189;50.640;19.242;2023-12-29T05:28:41;13;10;6
84927;PMS7003;75189;50.640;19.242;2023-12-29T05:34:48;8;7;5
84927;PMS7003;75189;50.640;19.242;2023-12-29T05:40:55;7;7;5
84927;PMS7003;75189;50.640;19.242;2023-12-29T05:47:02;9;8;5
84927;PMS7003;75189;50.640;19.242;2023-12-29T05:53:10;23;14;9
84927;PMS7003;75189;50.640;19.242;2023-12-29T05:59:17;6;5;4
84927;PMS7003;75189;50.640;19.242;2023-12-29T06:05:44;9;5;5
84927;PMS7003;75189;50.640;19.242;2023-12-29T06:11:51;9;6;4
84927;PMS7003;75189;50.640;19.242;2023-12-29T06:17:58;5;4;2
84927;PMS7003;75189;50.640;19.242;2023-12-29T06:24:05;9;7;4
84927;PMS7003;75189;50.640;19.242;2023-12-29T06:30:12;7;5;3
84927;PMS7003;75189;50.640;19.242;2023-12-29T06:36:19;7;4;3
84927;PMS7003;75189;50.640;19.242;2023-12-29T06:42:26;5;3;2
84927;PMS7003;75189;50.640;19.242;2023-12-29T06:48:33;10;5;3
84927;PMS7003;75189;50.640;19.242;2023-12-29T06:55:01;9;7;5
84927;PMS7003;75189;50.640;19.242;2023-12-29T07:01:09;7;4;2
84927;PMS7003;75189;50.640;19.242;2023-12-29T07:07:15;7;4;2
84927;PMS7003;75189;50.640;19.242;2023-12-29T07:13:22;4;4;2
84927;PMS7003;75189;50.640;19.242;2023-12-29T07:19:29;5;2;1
84927;PMS7003;75189;50.640;19.242;2023-12-29T07:25:44;6;4;2
84927;PMS7003;75189;50.640;19.242;2023-12-29T07:31:51;3;3;2
84927;PMS7003;75189;50.640;19.242;2023-12-29T07:37:58;6;5;2
84927;PMS7003;75189;50.640;19.242;2023-12-29T07:44:18;6;5;3
84927;PMS7003;75189;50.640;19.242;2023-12-29T07:50:25;9;5;3
84927;PMS7003;75189;50.640;19.242;2023-12-29T07:56:33;4;3;2
84927;PMS7003;75189;50.640;19.242;2023-12-29T08:02:41;5;3;1
84927;PMS7003;75189;50.640;19.242;2023-12-29T08:08:48;5;5;3
84927;PMS7003;75189;50.640;19.242;2023-12-29T08:14:55;4;4;3
84927;PMS7003;75189;50.640;19.242;2023-12-29T08:21:04;13;8;5
84927;PMS7003;75189;50.640;19.242;2023-12-29T08:27:13;7;5;3
84927;PMS7003;75189;50.640;19.242;2023-12-29T08:33:35;4;4;2
84927;PMS7003;75189;50.640;19.242;2023-12-29T08:39:42;10;7;5
84927;PMS7003;75189;50.640;19.242;2023-12-29T08:45:49;12;9;5
84927;PMS7003;75189;50.640;19.242;2023-12-29T08:51:56;14;10;5
84927;PMS7003;75189;50.640;19.242;2023-12-29T08:58:04;6;5;4
84927;PMS7003;75189;50.640;19.242;2023-12-29T09:04:11;8;6;4
84927;PMS7003;75189;50.640;19.242;2023-12-29T09:10:18;10;8;4
84927;PMS7003;75189;50.640;19.242;2023-12-29T09:16:25;12;11;7
84927;PMS7003;75189;50.640;19.242;2023-12-29T09:22:52;9;5;3
84927;PMS7003;75189;50.640;19.242;2023-12-29T09:29:01;10;8;5
84927;PMS7003;75189;50.640;19.242;2023-12-29T09:35:08;9;7;6
84927;PMS7003;75189;50.640;19.242;2023-12-29T09:41:15;9;6;4
84927;PMS7003;75189;50.640;19.242;2023-12-29T09:47:26;15;11;8
84927;PMS7003;75189;50.640;19.242;2023-12-29T09:53:36;9;6;4
84927;PMS7003;75189;50.640;19.242;2023-12-29T09:59:46;10;6;2
84927;PMS7003;75189;50.640;19.242;2023-12-29T10:05:59;13;9;6
84927;PMS7003;75189;50.640;19.242;2023-12-29T10:12:09;11;9;7
84927;PMS7003;75189;50.640;19.242;2023-12-29T10:18:42;9;6;4
84927;PMS7003;75189;50.640;19.242;2023-12-29T10:24:42;8;7;4
84927;PMS7003;75189;50.640;19.242;2023-12-29T10:30:52;7;4;3
84927;PMS7003;75189;50.640;19.242;2023-12-29T10:36:59;8;5;3
84927;PMS7003;75189;50.640;19.242;2023-12-29T10:43:16;5;3;2
84927;PMS7003;75189;50.640;19.242;2023-12-29T10:49:32;5;5;3
84927;PMS7003;75189;50.640;19.242;2023-12-29T10:55:57;7;5;3
84927;PMS7003;75189;50.640;19.242;2023-12-29T11:02:04;5;4;3
84927;PMS7003;75189;50.640;19.242;2023-12-29T11:08:15;3;2;0
84927;PMS7003;75189;50.640;19.242;2023-12-29T11:14:26;3;3;1
84927;PMS7003;75189;50.640;19.242;2023-12-29T11:20:36;3;1;1
84927;PMS7003;75189;50.640;19.242;2023-12-29T11:26:45;6;4;2
84927;PMS7003;75189;50.640;19.242;2023-12-29T11:33:00;8;3;2
84927;PMS7003;75189;50.640;19.242;2023-12-29T11:45:33;4;4;2
84927;PMS7003;75189;50.640;19.242;2023-12-29T11:51:46;4;2;1
84927;PMS7003;75189;50.640;19.242;2023-12-29T11:57:58;4;1;1
84927;PMS7003;75189;50.640;19.242;2023-12-29T12:10:29;4;4;2
84927;PMS7003;75189;50.640;19.242;2023-12-29T12:23:00;2;2;1
84927;PMS7003;75189;50.640;19.242;2023-12-29T12:29:18;4;2;1
84927;PMS7003;75189;50.640;19.242;2023-12-29T12:35:25;11;6;3
84927;PMS7003;75189;50.640;19.242;2023-12-29T12:41:32;7;4;1
84927;PMS7003;75189;50.640;19.242;2023-12-29T12:47:44;6;4;3
84927;PMS7003;75189;50.640;19.242;2023-12-29T12:56:44;1;1;1
84927;PMS7003;75189;50.640;19.242;2023-12-29T13:02:52;1;1;0
84927;PMS7003;75189;50.640;19.242;2023-12-29T13:09:00;2;2;1
84927;PMS7003;75189;50.640;19.242;2023-12-29T13:15:17;2;2;1
84927;PMS7003;75189;50.640;19.242;2023-12-29T13:21:24;5;3;1
84927;PMS7003;75189;50.640;19.242;2023-12-29T13:27:31;3;3;1
84927;PMS7003;75189;50.640;19.242;2023-12-29T13:33:57;4;2;1
84927;PMS7003;75189;50.640;19.242;2023-12-29T13:40:08;2;1;1
84927;PMS7003;75189;50.640;19.242;2023-12-29T13:46:18;3;3;1
84927;PMS7003;75189;50.640;19.242;2023-12-29T13:52:25;5;5;3
84927;PMS7003;75189;50.640;19.242;2023-12-29T13:58:32;2;1;1
84927;PMS7003;75189;50.640;19.242;2023-12-29T14:04:39;4;3;2
84927;PMS7003;75189;50.640;19.242;2023-12-29T14:10:46;4;2;1
84927;PMS7003;75189;50.640;19.242;2023-12-29T14:16:54;1;1;0
84927;PMS7003;75189;50.640;19.242;2023-12-29T14:23:04;4;2;1
84927;PMS7003;75189;50.640;19.242;2023-12-29T14:29:18;3;2;1
84927;PMS7003;75189;50.640;19.242;2023-12-29T14:35:25;5;5;2
84927;PMS7003;75189;50.640;19.242;2023-12-29T14:41:32;7;4;3
84927;PMS7003;75189;50.640;19.242;2023-12-29T14:47:40;9;6;3
84927;PMS7003;75189;50.640;19.242;2023-12-29T14:53:48;8;3;1
84927;PMS7003;75189;50.640;19.242;2023-12-29T14:59:56;5;3;1
84927;PMS7003;75189;50.640;19.242;2023-12-29T15:06:04;0;0;0
84927;PMS7003;75189;50.640;19.242;2023-12-29T15:12:11;4;3;2
84927;PMS7003;75189;50.640;19.242;2023-12-29T15:18:34;2;1;1
84927;PMS7003;75189;50.640;19.242;2023-12-29T15:24:41;5;3;2
84927;PMS7003;75189;50.640;19.242;2023-12-29T15:30:48;9;5;3
84927;PMS7003;75189;50.640;19.242;2023-12-29T15:36:56;5;5;3
84927;PMS7003;75189;50.640;19.242;2023-12-29T15:43:04;14;7;4
84927;PMS7003;75189;50.640;19.242;2023-12-29T15:49:13;4;4;3
84927;PMS7003;75189;50.640;19.242;2023-12-29T15:55:20;7;6;4
84927;PMS7003;75189;50.640;19.242;2023-12-29T16:01:27;9;9;5
84927;PMS7003;75189;50.640;19.242;2023-12-29T16:07:52;3;3;1
84927;PMS7003;75189;50.640;19.242;2023-12-29T16:14:00;8;7;4
84927;PMS7003;75189;50.640;19.242;2023-12-29T16:20:07;10;6;4
84927;PMS7003;75189;50.640;19.242;2023-12-29T16:26:15;14;10;5
84927;PMS7003;75189;50.640;19.242;2023-12-29T16:32:23;6;5;2
84927;PMS7003;75189;50.640;19.242;2023-12-29T16:38:39;12;8;6
84927;PMS7003;75189;50.640;19.242;2023-12-29T16:44:54;8;6;4
84927;PMS7003;75189;50.640;19.242;2023-12-29T16:51:01;12;9;5
84927;PMS7003;75189;50.640;19.242;2023-12-29T16:57:10;10;8;6
84927;PMS7003;75189;50.640;19.242;2023-12-29T17:03:17;7;5;4
84927;PMS7003;75189;50.640;19.242;2023-12-29T17:09:28;16;10;7
84927;PMS7003;75189;50.640;19.242;2023-12-29T17:15:35;13;9;7
84927;PMS7003;75189;50.640;19.242;2023-12-29T17:21:42;8;5;3
84927;PMS7003;75189;50.640;19.242;2023-12-29T17:27:49;16;13;9
84927;PMS7003;75189;50.640;19.242;2023-12-29T17:33:56;26;12;7
84927;PMS7003;75189;50.640;19.242;2023-12-29T17:40:03;22;14;10
84927;PMS7003;75189;50.640;19.242;2023-12-29T17:46:26;29;20;12
84927;PMS7003;75189;50.640;19.242;2023-12-29T17:52:32;21;15;10
84927;PMS7003;75189;50.640;19.242;2023-12-29T17:58:39;28;18;10
84927;PMS7003;75189;50.640;19.242;2023-12-29T18:04:46;19;17;10
84927;PMS7003;75189;50.640;19.242;2023-12-29T18:10:53;18;15;9
84927;PMS7003;75189;50.640;19.242;2023-12-29T18:17:01;25;21;12
84927;PMS7003;75189;50.640;19.242;2023-12-29T18:23:15;13;9;6
84927;PMS7003;75189;50.640;19.242;2023-12-29T18:29:22;23;16;11
84927;PMS7003;75189;50.640;19.242;2023-12-29T18:35:43;21;15;7
84927;PMS7003;75189;50.640;19.242;2023-12-29T18:41:49;15;11;7
84927;PMS7003;75189;50.640;19.242;2023-12-29T18:47:56;21;17;10
84927;PMS7003;75189;50.640;19.242;2023-12-29T18:54:06;15;14;10
84927;PMS7003;75189;50.640;19.242;2023-12-29T19:00:17;9;7;5
84927;PMS7003;75189;50.640;19.242;2023-12-29T19:06:26;13;8;5
84927;PMS7003;75189;50.640;19.242;2023-12-29T19:12:34;12;9;4
84927;PMS7003;75189;50.640;19.242;2023-12-29T19:18:47;12;10;7
84927;PMS7003;75189;50.640;19.242;2023-12-29T19:25:00;17;13;8
84927;PMS7003;75189;50.640;19.242;2023-12-29T19:31:10;13;9;7
84927;PMS7003;75189;50.640;19.242;2023-12-29T19:37:18;16;12;7
84927;PMS7003;75189;50.640;19.242;2023-12-29T19:43:27;19;14;8
84927;PMS7003;75189;50.640;19.242;2023-12-29T19:49:39;9;7;5
84927;PMS7003;75189;50.640;19.242;2023-12-29T19:55:49;21;16;10
84927;PMS7003;75189;50.640;19.242;2023-12-29T20:01:59;17;13;8
84927;PMS7003;75189;50.640;19.242;2023-12-29T20:08:09;14;9;5
84927;PMS7003;75189;50.640;19.242;2023-12-29T20:14:26;17;13;7
84927;PMS7003;75189;50.640;19.242;2023-12-29T20:20:38;10;7;5
84927;PMS7003;75189;50.640;19.242;2023-12-29T20:27:00;8;8;5
84927;PMS7003;75189;50.640;19.242;2023-12-29T20:33:08;11;8;5
84927;PMS7003;75189;50.640;19.242;2023-12-29T20:39:16;7;6;4
84927;PMS7003;75189;50.640;19.242;2023-12-29T20:45:23;11;8;4
84927;PMS7003;75189;50.640;19.242;2023-12-29T20:51:40;7;2;1
84927;PMS7003;75189;50.640;19.242;2023-12-29T20:58:11;2;0;0
84927;PMS7003;75189;50.640;19.242;2023-12-29T21:04:20;4;3;1
84927;PMS7003;75189;50.640;19.242;2023-12-29T21:10:31;4;2;1
84927;PMS7003;75189;50.640;19.242;2023-12-29T21:16:42;2;1;1
84927;PMS7003;75189;50.640;19.242;2023-12-29T21:22:52;4;4;2
84927;PMS7003;75189;50.640;19.242;2023-12-29T21:29:05;6;6;3
84927;PMS7003;75189;50.640;19.242;2023-12-29T21:35:12;4;4;2
84927;PMS7003;75189;50.640;19.242;2023-12-29T21:41:26;4;3;1
84927;PMS7003;75189;50.640;19.242;2023-12-29T21:47:42;6;4;3
84927;PMS7003;75189;50.640;19.242;2023-12-29T21:53:52;7;3;1
84927;PMS7003;75189;50.640;19.242;2023-12-29T22:00:02;4;3;1
84927;PMS7003;75189;50.640;19.242;2023-12-29T22:06:14;4;1;1
84927;PMS7003;75189;50.640;19.242;2023-12-29T22:12:26;3;2;1
84927;PMS7003;75189;50.640;19.242;2023-12-29T22:18:34;1;1;1
84927;PMS7003;75189;50.640;19.242;2023-12-29T22:24:41;3;2;1
84927;PMS7003;75189;50.640;19.242;2023-12-29T22:30:48;8;4;2
84927;PMS7003;75189;50.640;19.242;2023-12-29T22:36:55;9;5;3
84927;PMS7003;75189;50.640;19.242;2023-12-29T22:43:03;4;3;1
84927;PMS7003;75189;50.640;19.242;2023-12-29T22:49:10;5;4;2
84927;PMS7003;75189;50.640;19.242;2023-12-29T22:55:17;4;3;1
84927;PMS7003;75189;50.640;19.242;2023-12-29T23:01:26;5;4;0
84927;PMS7003;75189;50.640;19.242;2023-12-29T23:07:34;9;6;3
84927;PMS7003;75189;50.640;19.242;2023-12-29T23:13:42;8;5;3
84927;PMS7003;75189;50.640;19.242;2023-12-29T23:19:49;5;5;4
84927;PMS7003;75189;50.640;19.242;2023-12-29T23:26:09;6;5;3
84927;PMS7003;75189;50.640;19.242;2023-12-29T23:32:16;6;3;2
84927;PMS7003;75189;50.640;19.242;2023-12-29T23:38:26;6;5;3
84927;PMS7003;75189;50.640;19.242;2023-12-29T23:44:35;5;3;2
84927;PMS7003;75189;50.640;19.242;2023-12-29T23:50:45;5;4;2
84927;PMS7003;75189;50.640;19.242;2023-12-29T23:56:52;9;4;2
